Terminal Aerodrome Forecast
Issued by NWS

Home | Current Version | Previous Version | Text Only | Print | Product List | Glossary On
Versions: 1 2 3 4 5 6 7 8 9 10 11 12 13 14
000
FTUS46 KLOX 252100 AAA
TAFOXR
TAF AMD
KOXR 252156Z 2522/2618 09016G23KT P6SM SKC
     FM252300 08010KT P6SM SKC
     FM260400 07005KT P6SM SCT250
     FM260700 08006KT P6SM OVC250
     FM261400 06010KT P6SM SCT150 OVC200=

USA.gov is the U.S. government's official web portal to all federal, state and local government web resources and services.